Time;durP1;ratioP1;P1;durP2;ratioP2;P2;SDS_P1;SDS_P2;PMS_P1;PMS_P2;Temp;Humidity;BMP_temperature;BMP_pressure;BME280_temperature;BME280_humidity;BME280_pressure;Samples;Min_cycle;Max_cycle;Signal;HPM_P1;HPM_P2
2023/08/30 04:01:39;;;;;;;3.03;1.80;;;14.60;97.30;;;;;;5515154;23;20859;-63
2023/08/30 04:04:05;;;;;;;1.30;1.20;;;14.60;97.30;;;;;;5011535;28;20463;-63
2023/08/30 04:06:31;;;;;;;2.87;2.67;;;14.60;97.30;;;;;;5000317;28;20190;-63
2023/08/30 04:08:57;;;;;;;1.73;1.63;;;14.50;97.30;;;;;;4991228;28;20244;-62
2023/08/30 04:11:23;;;;;;;1.77;1.67;;;14.50;97.30;;;;;;4988361;28;20293;-62
2023/08/30 04:13:48;;;;;;;1.50;1.40;;;14.50;97.30;;;;;;4971406;28;20337;-62
2023/08/30 04:16:14;;;;;;;17.33;2.73;;;14.50;97.30;;;;;;4978882;28;20985;-62
2023/08/30 04:18:40;;;;;;;1.70;1.60;;;14.50;97.30;;;;;;4971056;28;20614;-62
2023/08/30 04:21:07;;;;;;;1.70;1.63;;;14.50;97.30;;;;;;4971201;28;20206;-62
2023/08/30 04:23:33;;;;;;;4.00;1.87;;;14.60;97.30;;;;;;4973412;28;20193;-62
2023/08/30 04:25:58;;;;;;;2.27;1.43;;;14.50;97.30;;;;;;4975344;28;20469;-62
2023/08/30 04:28:24;;;;;;;2.20;1.70;;;14.60;97.30;;;;;;4978677;28;20650;-63
2023/08/30 04:30:53;;;;;;;1.90;1.50;;;14.50;97.30;;;;;;4975814;28;20273;-62
2023/08/30 04:33:19;;;;;;;1.83;1.30;;;14.50;97.30;;;;;;4980414;28;20190;-62
2023/08/30 04:35:49;;;;;;;3.03;1.93;;;14.60;97.30;;;;;;4975720;28;20804;-62
2023/08/30 04:38:15;;;;;;;2.03;1.67;;;14.60;97.30;;;;;;4972135;28;20187;-61
2023/08/30 04:40:40;;;;;;;3.33;2.87;;;14.50;97.30;;;;;;4976652;28;20463;-62
2023/08/30 04:43:06;;;;;;;2.70;1.97;;;14.50;97.30;;;;;;4971865;28;20273;-62
2023/08/30 04:45:31;;;;;;;1.20;1.10;;;14.50;97.30;;;;;;4971864;28;20652;-61
2023/08/30 04:47:57;;;;;;;5.33;2.17;;;14.50;97.30;;;;;;4976432;28;20611;-62
2023/08/30 04:50:22;;;;;;;1.97;1.50;;;14.50;97.30;;;;;;4975135;28;20285;-62
2023/08/30 04:52:48;;;;;;;3.60;1.40;;;14.50;97.30;;;;;;4970734;28;20178;-62
2023/08/30 04:55:14;;;;;;;2.17;1.67;;;14.50;97.30;;;;;;4970366;28;20206;-62
2023/08/30 04:57:39;;;;;;;3.23;3.03;;;14.50;97.30;;;;;;4971208;28;20702;-62
2023/08/30 05:00:05;;;;;;;2.40;2.00;;;14.40;97.30;;;;;;4970767;28;20206;-62
2023/08/30 05:02:31;;;;;;;2.20;2.00;;;14.40;97.30;;;;;;4963350;28;20230;-62
2023/08/30 05:04:57;;;;;;;1.40;1.30;;;14.40;97.30;;;;;;4971949;28;20532;-62
2023/08/30 05:07:22;;;;;;;1.83;1.63;;;14.40;97.30;;;;;;4971337;28;20418;-62
2023/08/30 05:09:48;;;;;;;2.47;2.27;;;14.40;97.30;;;;;;4976343;28;20240;-62
2023/08/30 05:12:14;;;;;;;3.20;1.50;;;14.40;97.30;;;;;;4971688;28;20606;-62
2023/08/30 05:14:40;;;;;;;1.40;1.37;;;14.40;97.30;;;;;;4971915;28;20540;-62
2023/08/30 05:17:07;;;;;;;2.33;2.13;;;14.40;97.30;;;;;;4972151;28;20185;-63
2023/08/30 05:19:32;;;;;;;1.37;1.27;;;14.40;97.30;;;;;;4971673;28;20429;-63
2023/08/30 05:21:58;;;;;;;3.03;2.10;;;14.40;97.30;;;;;;4973510;28;20515;-62
2023/08/30 05:24:24;;;;;;;2.57;2.47;;;14.40;97.30;;;;;;4970020;28;20211;-62
2023/08/30 05:26:49;;;;;;;1.67;1.40;;;14.40;97.30;;;;;;4970516;28;20186;-62
2023/08/30 05:29:16;;;;;;;2.40;1.93;;;14.40;97.30;;;;;;4971223;28;20183;-63
2023/08/30 05:31:42;;;;;;;2.10;1.53;;;14.40;97.30;;;;;;4972164;28;20207;-63
2023/08/30 05:34:07;;;;;;;1.83;1.50;;;14.40;97.30;;;;;;4971273;28;20429;-62
2023/08/30 05:36:33;;;;;;;1.63;1.53;;;14.40;97.30;;;;;;4963552;28;20418;-62
2023/08/30 05:38:59;;;;;;;4.20;2.10;;;14.40;97.30;;;;;;4970154;28;20190;-63
2023/08/30 05:41:24;;;;;;;2.43;1.83;;;14.30;97.30;;;;;;4969781;28;20300;-61
2023/08/30 05:43:50;;;;;;;2.83;2.63;;;14.30;97.30;;;;;;4979129;28;20605;-62
2023/08/30 05:46:16;;;;;;;4.07;3.20;;;14.30;97.30;;;;;;4969706;28;20527;-62
2023/08/30 05:48:42;;;;;;;2.60;1.67;;;14.30;97.30;;;;;;4971260;28;20418;-62
2023/08/30 05:51:07;;;;;;;1.77;1.67;;;14.30;97.30;;;;;;4970979;28;20203;-62
2023/08/30 05:53:33;;;;;;;3.53;2.80;;;14.30;97.30;;;;;;4970578;28;20249;-62
2023/08/30 05:55:58;;;;;;;1.20;1.10;;;14.30;97.30;;;;;;4971363;28;20221;-62
2023/08/30 05:58:24;;;;;;;2.70;2.30;;;14.30;97.30;;;;;;4969356;28;20643;-62
2023/08/30 06:00:49;;;;;;;3.73;3.10;;;14.30;97.30;;;;;;4969683;28;20269;-62
2023/08/30 06:03:15;;;;;;;6.20;3.80;;;14.30;97.30;;;;;;4971166;28;20190;-62
2023/08/30 06:05:42;;;;;;;4.83;2.23;;;14.30;97.30;;;;;;4978410;28;20241;-62
2023/08/30 06:08:08;;;;;;;2.50;1.83;;;14.40;97.30;;;;;;4970881;28;20178;-62
2023/08/30 06:10:34;;;;;;;3.80;1.90;;;14.30;97.30;;;;;;4970628;28;20500;-62
2023/08/30 06:13:00;;;;;;;1.77;1.73;;;14.40;97.30;;;;;;4974912;28;20185;-62
2023/08/30 06:15:26;;;;;;;2.03;1.90;;;14.40;97.30;;;;;;4970962;28;20429;-62
2023/08/30 06:17:52;;;;;;;4.20;2.17;;;14.40;97.30;;;;;;4968847;28;20273;-62
2023/08/30 06:20:17;;;;;;;5.77;2.60;;;14.40;97.30;;;;;;4975309;28;20835;-62
2023/08/30 06:22:43;;;;;;;3.07;1.40;;;14.40;97.30;;;;;;4969481;28;20186;-62
2023/08/30 06:25:09;;;;;;;3.23;3.03;;;14.40;97.30;;;;;;4971060;28;20674;-62
2023/08/30 06:27:56;;;;;;;3.27;3.07;;;14.40;97.30;;;;;;4970748;28;20560;-62
2023/08/30 06:30:22;;;;;;;3.80;2.23;;;14.50;97.30;;;;;;4986346;28;20420;-62
2023/08/30 06:32:49;;;;;;;4.10;1.73;;;14.50;97.30;;;;;;4977058;28;20767;-62
2023/08/30 06:35:15;;;;;;;2.30;2.10;;;14.50;97.30;;;;;;4970369;28;20937;-62
2023/08/30 06:37:40;;;;;;;2.70;2.23;;;14.50;97.30;;;;;;4969193;28;20417;-62
2023/08/30 06:40:07;;;;;;;2.17;1.90;;;14.60;97.30;;;;;;4978249;28;20425;-62
2023/08/30 06:42:32;;;;;;;2.50;2.30;;;14.60;97.30;;;;;;4968704;28;20182;-62
2023/08/30 06:44:58;;;;;;;1.77;1.50;;;14.70;97.30;;;;;;4975980;28;20549;-62
2023/08/30 06:47:23;;;;;;;4.37;2.33;;;14.80;97.30;;;;;;4978933;28;20804;-62
2023/08/30 06:49:49;;;;;;;4.57;2.70;;;14.80;97.30;;;;;;4970047;28;20262;-61
2023/08/30 06:52:14;;;;;;;9.07;3.10;;;14.80;97.30;;;;;;4968278;28;20202;-62
2023/08/30 06:54:40;;;;;;;1.40;1.30;;;14.90;97.30;;;;;;4968301;28;20194;-62
2023/08/30 06:57:06;;;;;;;4.17;3.83;;;15.00;97.30;;;;;;4969993;28;20276;-62
2023/08/30 06:59:32;;;;;;;1.60;1.50;;;15.00;97.30;;;;;;4967292;28;20281;-61
2023/08/30 07:01:58;;;;;;;2.23;1.90;;;15.10;97.30;;;;;;4968535;28;20561;-62
2023/08/30 07:04:23;;;;;;;1.60;1.53;;;15.20;97.30;;;;;;4970217;28;20202;-62
2023/08/30 07:06:50;;;;;;;8.83;3.57;;;15.30;97.30;;;;;;4970272;28;20213;-62
2023/08/30 07:09:16;;;;;;;3.70;1.80;;;15.40;97.30;;;;;;4970301;28;20670;-62
2023/08/30 07:11:46;;;;;;;5.53;2.13;;;15.40;97.30;;;;;;4968293;28;20448;-61
2023/08/30 07:14:13;;;;;;;2.37;2.17;;;15.50;97.30;;;;;;4968707;28;20426;-61
2023/08/30 07:16:39;;;;;;;2.53;2.03;;;15.50;97.30;;;;;;4966926;28;20430;-61
2023/08/30 07:19:05;;;;;;;2.80;2.57;;;15.60;97.30;;;;;;4968692;28;20521;-62
2023/08/30 07:21:30;;;;;;;2.20;2.00;;;15.60;97.30;;;;;;4968402;28;20305;-62
2023/08/30 07:23:56;;;;;;;3.37;3.20;;;15.60;97.30;;;;;;4969217;28;20277;-62
2023/08/30 07:26:21;;;;;;;1.33;1.23;;;15.70;97.30;;;;;;4969709;28;20623;-61
2023/08/30 07:28:47;;;;;;;2.47;1.80;;;15.70;97.30;;;;;;4969650;28;20190;-61
2023/08/30 07:31:18;;;;;;;2.63;2.03;;;15.80;97.30;;;;;;4970081;28;20587;-62
2023/08/30 07:33:44;;;;;;;2.27;1.73;;;15.80;97.30;;;;;;4971954;28;20548;-62
2023/08/30 07:36:10;;;;;;;3.27;1.20;;;15.90;97.30;;;;;;4971554;28;20421;-62
2023/08/30 07:38:35;;;;;;;3.17;2.03;;;15.90;97.30;;;;;;4970312;28;20941;-62
2023/08/30 07:41:02;;;;;;;2.63;1.73;;;16.00;97.30;;;;;;4969141;28;20206;-62
2023/08/30 07:43:27;;;;;;;26.77;2.90;;;16.10;97.30;;;;;;4971535;28;20191;-61
2023/08/30 07:45:53;;;;;;;3.97;2.87;;;16.20;97.30;;;;;;4974110;28;20515;-62
2023/08/30 07:48:18;;;;;;;4.57;3.30;;;16.30;97.30;;;;;;4971396;28;20218;-62
2023/08/30 07:50:44;;;;;;;3.53;2.10;;;16.30;97.30;;;;;;4970023;28;20206;-62
2023/08/30 07:53:10;;;;;;;1.93;1.43;;;16.40;97.30;;;;;;4971995;28;20189;-62
2023/08/30 07:55:36;;;;;;;2.50;1.50;;;16.50;97.30;;;;;;4972863;28;20234;-62
2023/08/30 07:58:02;;;;;;;1.90;1.20;;;16.60;97.30;;;;;;4979197;28;20588;-62
2023/08/30 08:00:29;;;;;;;1.23;1.20;;;16.60;97.30;;;;;;4970478;28;20542;-62
2023/08/30 08:02:54;;;;;;;1.63;1.60;;;16.70;97.30;;;;;;4970866;28;20445;-62
2023/08/30 08:05:20;;;;;;;1.50;1.20;;;16.70;97.30;;;;;;4972104;28;20811;-62
2023/08/30 08:07:50;;;;;;;1.37;1.27;;;16.80;97.30;;;;;;4971742;28;20182;-62
2023/08/30 08:10:15;;;;;;;1.80;1.60;;;16.90;97.30;;;;;;4979343;28;20674;-62
2023/08/30 08:12:41;;;;;;;1.63;1.20;;;17.00;97.30;;;;;;4972826;28;20453;-62
2023/08/30 08:15:06;;;;;;;1.60;1.50;;;17.00;97.30;;;;;;4979008;28;20193;-62
2023/08/30 08:17:32;;;;;;;1.33;1.23;;;17.10;97.30;;;;;;4972729;28;20186;-62
2023/08/30 08:19:58;;;;;;;3.40;2.03;;;17.10;97.30;;;;;;4970977;28;20194;-62
2023/08/30 08:22:23;;;;;;;1.20;1.10;;;17.20;97.30;;;;;;4972197;28;20222;-62
2023/08/30 08:24:51;;;;;;;1.73;1.63;;;17.30;97.30;;;;;;4974816;28;20210;-62
2023/08/30 08:27:17;;;;;;;1.83;1.73;;;17.40;97.30;;;;;;4974020;28;20297;-61
2023/08/30 08:29:42;;;;;;;1.47;1.37;;;17.40;97.30;;;;;;4971238;28;20929;-62
2023/08/30 08:32:08;;;;;;;3.27;2.00;;;17.50;97.30;;;;;;4970587;28;20198;-61
2023/08/30 08:34:34;;;;;;;1.80;1.67;;;17.60;97.30;;;;;;4972027;28;20187;-62
2023/08/30 08:36:59;;;;;;;2.03;1.53;;;17.70;97.30;;;;;;4973977;28;20182;-62
2023/08/30 08:39:25;;;;;;;1.83;1.30;;;17.70;97.30;;;;;;4963854;28;20191;-62
2023/08/30 08:41:54;;;;;;;2.20;1.77;;;17.80;97.30;;;;;;4967009;28;20293;-62
2023/08/30 08:44:22;;;;;;;1.87;1.33;;;17.90;97.30;;;;;;4967223;28;20242;-62
2023/08/30 08:46:49;;;;;;;10.10;2.13;;;17.90;97.30;;;;;;4966031;28;20437;-62
2023/08/30 08:49:15;;;;;;;1.80;1.37;;;18.00;97.30;;;;;;4963634;28;20442;-62
2023/08/30 08:51:42;;;;;;;2.90;1.70;;;18.10;97.30;;;;;;4974590;28;20439;-62
2023/08/30 08:54:09;;;;;;;1.10;0.83;;;18.10;97.30;;;;;;4978126;28;20782;-61
2023/08/30 08:56:35;;;;;;;1.63;1.20;;;18.20;97.30;;;;;;4970352;28;20885;-62
2023/08/30 08:59:01;;;;;;;1.20;1.10;;;18.20;97.30;;;;;;4971816;28;20449;-62
2023/08/30 09:01:27;;;;;;;1.47;1.37;;;18.30;97.30;;;;;;4964054;28;20851;-61
2023/08/30 09:03:52;;;;;;;1.00;0.90;;;18.40;97.30;;;;;;4970053;28;20499;-61
2023/08/30 09:06:19;;;;;;;2.73;1.17;;;18.60;97.30;;;;;;4968354;28;20577;-62
2023/08/30 09:08:44;;;;;;;1.43;1.20;;;18.70;97.30;;;;;;4978752;28;20181;-62
2023/08/30 09:11:10;;;;;;;1.63;1.53;;;18.70;97.30;;;;;;4977866;28;20810;-63
2023/08/30 09:13:36;;;;;;;1.87;1.60;;;18.70;97.30;;;;;;4973384;28;20219;-62
2023/08/30 09:16:02;;;;;;;1.87;1.30;;;18.70;97.30;;;;;;4970336;28;20240;-62
2023/08/30 09:18:28;;;;;;;4.00;1.20;;;18.80;97.30;;;;;;4970206;28;20218;-61
2023/08/30 09:21:05;;;;;;;1.57;1.47;;;18.90;97.30;;;;;;4971449;28;20442;-62
2023/08/30 09:23:31;;;;;;;1.50;1.40;;;18.90;97.30;;;;;;4974711;28;20498;-62
2023/08/30 09:25:57;;;;;;;1.20;1.10;;;19.00;97.30;;;;;;4970299;28;20993;-62
2023/08/30 09:28:22;;;;;;;1.40;1.30;;;19.10;97.30;;;;;;4970564;28;20185;-61
2023/08/30 09:30:52;;;;;;;1.13;1.03;;;19.20;97.30;;;;;;4970042;28;20203;-62
2023/08/30 09:33:22;;;;;;;1.57;1.20;;;19.20;97.30;;;;;;4970570;28;20179;-62
2023/08/30 09:35:47;;;;;;;1.03;0.97;;;19.30;97.30;;;;;;4971538;28;20429;-61
2023/08/30 09:38:18;;;;;;;0.90;0.80;;;19.30;97.30;;;;;;4971544;28;20758;-63
2023/08/30 09:40:44;;;;;;;1.30;1.00;;;19.30;97.30;;;;;;4978114;28;20704;-62
2023/08/30 09:43:17;;;;;;;1.13;1.00;;;19.30;97.30;;;;;;4970491;28;20925;-62
2023/08/30 09:45:43;;;;;;;0.87;0.80;;;19.30;96.80;;;;;;4971010;28;20472;-62
2023/08/30 09:48:09;;;;;;;0.90;0.80;;;19.20;96.80;;;;;;4969889;28;20795;-62
2023/08/30 09:50:36;;;;;;;1.17;1.10;;;19.20;94.70;;;;;;4970901;28;20213;-62
2023/08/30 09:53:07;;;;;;;1.67;1.10;;;19.30;94.80;;;;;;4969384;28;20174;-61
2023/08/30 09:55:34;;;;;;;1.40;1.30;;;19.40;94.70;;;;;;4970276;28;20449;-61
2023/08/30 09:58:04;;;;;;;1.20;0.97;;;19.60;94.50;;;;;;4977037;28;20424;-63
2023/08/30 10:00:31;;;;;;;2.07;1.10;;;19.70;94.30;;;;;;4981600;28;20565;-63
2023/08/30 10:02:58;;;;;;;1.47;1.33;;;19.80;94.10;;;;;;4972828;28;20422;-62
2023/08/30 10:05:25;;;;;;;4.00;1.27;;;19.90;92.00;;;;;;4970282;28;20628;-61
2023/08/30 10:07:52;;;;;;;1.43;0.83;;;20.00;93.80;;;;;;4969881;28;20441;-62
2023/08/30 10:10:19;;;;;;;1.13;1.10;;;20.00;92.50;;;;;;4978348;28;20413;-62
2023/08/30 10:12:46;;;;;;;1.70;1.00;;;19.90;93.00;;;;;;4977784;28;20442;-62
2023/08/30 10:15:12;;;;;;;1.00;1.00;;;19.90;93.50;;;;;;4986170;23;20430;-64
2023/08/30 10:17:41;;;;;;;1.00;0.90;;;19.80;93.70;;;;;;4988250;28;20444;-65
2023/08/30 10:20:07;;;;;;;1.20;1.10;;;19.70;94.00;;;;;;4997857;28;20225;-64
2023/08/30 10:22:37;;;;;;;1.80;1.37;;;19.60;93.40;;;;;;4984471;28;20545;-64
2023/08/30 10:25:06;;;;;;;1.57;1.47;;;19.60;94.40;;;;;;4970106;28;20593;-64
2023/08/30 10:27:34;;;;;;;1.30;1.20;;;19.70;94.40;;;;;;4966332;28;20810;-62
2023/08/30 10:30:03;;;;;;;1.00;0.90;;;19.90;94.40;;;;;;4969611;28;20425;-63
2023/08/30 10:32:30;;;;;;;0.90;0.80;;;20.00;93.50;;;;;;4970851;28;20553;-62
2023/08/30 10:34:55;;;;;;;1.13;0.90;;;20.20;94.00;;;;;;4963470;28;20893;-63
2023/08/30 10:37:26;;;;;;;2.27;1.13;;;20.30;93.10;;;;;;4969549;28;21045;-62
2023/08/30 10:39:52;;;;;;;1.10;1.00;;;20.50;94.20;;;;;;4969329;28;20662;-63
2023/08/30 10:42:22;;;;;;;1.13;0.93;;;20.70;93.80;;;;;;4970630;28;20445;-64
2023/08/30 10:44:48;;;;;;;3.80;1.70;;;20.80;90.70;;;;;;4969545;28;20206;-63
2023/08/30 10:47:35;;;;;;;1.30;1.20;;;20.80;88.00;;;;;;4978735;28;20414;-62
2023/08/30 10:50:05;;;;;;;1.53;1.43;;;20.80;89.60;;;;;;4963211;28;20778;-63
2023/08/30 10:52:31;;;;;;;1.33;1.03;;;20.90;90.10;;;;;;4968799;28;20426;-62
2023/08/30 10:55:08;;;;;;;2.20;1.57;;;21.00;91.40;;;;;;4978553;28;20422;-62
2023/08/30 10:57:33;;;;;;;1.87;1.67;;;21.20;90.60;;;;;;4976949;28;20516;-62
2023/08/30 11:00:13;;;;;;;1.30;1.27;;;21.30;90.40;;;;;;4969108;28;20461;-63
2023/08/30 11:02:48;;;;;;;1.90;1.53;;;21.40;89.10;;;;;;4968657;28;20661;-63
2023/08/30 11:05:19;;;;;;;4.03;1.30;;;21.40;89.10;;;;;;4976841;28;20469;-63
2023/08/30 11:07:45;;;;;;;1.30;1.20;;;21.30;89.00;;;;;;4969931;28;20433;-62
2023/08/30 11:10:12;;;;;;;1.23;1.17;;;21.20;89.00;;;;;;4970108;28;20414;-63
2023/08/30 11:12:43;;;;;;;1.47;1.47;;;21.10;90.40;;;;;;4969993;28;20236;-63
2023/08/30 11:15:10;;;;;;;1.70;1.13;;;20.90;89.50;;;;;;4968856;28;20437;-64
2023/08/30 11:17:35;;;;;;;1.57;1.20;;;20.80;89.70;;;;;;4968747;28;20442;-62
2023/08/30 11:20:10;;;;;;;1.37;1.27;;;20.70;90.70;;;;;;4973941;28;20544;-63
2023/08/30 11:22:43;;;;;;;1.70;1.30;;;20.80;91.40;;;;;;4970670;28;20216;-62
2023/08/30 11:25:10;;;;;;;1.60;1.50;;;20.80;89.70;;;;;;4976552;28;20851;-62
2023/08/30 11:27:37;;;;;;;1.10;1.00;;;20.70;90.20;;;;;;4978075;28;20428;-62
2023/08/30 11:30:05;;;;;;;0.90;0.80;;;20.70;90.90;;;;;;4989369;28;20421;-62
2023/08/30 11:32:34;;;;;;;1.33;1.23;;;20.70;91.00;;;;;;4981173;28;20520;-64
2023/08/30 11:35:00;;;;;;;1.43;1.20;;;20.70;89.50;;;;;;4970315;28;20413;-63
2023/08/30 11:37:29;;;;;;;2.03;1.20;;;20.80;90.90;;;;;;4976408;28;20413;-62
2023/08/30 11:39:56;;;;;;;1.77;1.67;;;21.00;91.80;;;;;;4978142;28;20662;-63
2023/08/30 11:42:22;;;;;;;1.27;1.17;;;21.20;91.10;;;;;;4968419;28;20449;-62
2023/08/30 11:44:48;;;;;;;1.93;1.47;;;21.40;89.80;;;;;;4970026;28;20479;-62
2023/08/30 11:47:24;;;;;;;0.90;0.80;;;21.60;88.60;;;;;;4981404;28;20431;-62
2023/08/30 11:49:53;;;;;;;1.53;1.43;;;21.80;87.50;;;;;;4969787;28;20841;-65
2023/08/30 11:52:19;;;;;;;1.27;1.20;;;21.90;87.60;;;;;;4969529;28;20438;-62
2023/08/30 11:54:50;;;;;;;1.97;1.60;;;22.00;87.80;;;;;;4976570;28;20495;-62
2023/08/30 11:57:16;;;;;;;1.10;1.00;;;22.20;87.10;;;;;;4976553;28;20435;-60
2023/08/30 11:59:42;;;;;;;1.33;0.90;;;22.30;85.30;;;;;;4977628;28;20440;-62
2023/08/30 12:02:08;;;;;;;0.80;0.80;;;22.40;86.10;;;;;;4982541;28;20787;-63
2023/08/30 12:04:45;;;;;;;0.87;0.83;;;22.50;86.00;;;;;;4981869;28;20457;-64
2023/08/30 12:07:24;;;;;;;1.37;1.00;;;22.50;83.20;;;;;;4963550;28;20453;-62
2023/08/30 12:09:50;;;;;;;1.37;1.27;;;22.50;85.80;;;;;;4969866;28;20410;-62
2023/08/30 12:12:16;;;;;;;0.90;0.83;;;22.60;87.00;;;;;;4970085;28;20818;-63
2023/08/30 12:14:42;;;;;;;0.83;0.77;;;22.70;84.60;;;;;;4968648;28;20187;-64
2023/08/30 12:17:11;;;;;;;1.87;0.97;;;22.70;82.60;;;;;;4975856;28;20237;-61
2023/08/30 12:19:36;;;;;;;1.40;1.30;;;22.60;84.50;;;;;;4988253;28;20496;-63
2023/08/30 12:22:06;;;;;;;1.00;1.00;;;22.60;84.70;;;;;;4972146;28;20521;-63
2023/08/30 12:24:42;;;;;;;2.07;1.10;;;22.70;86.40;;;;;;4968762;28;20210;-61
2023/08/30 12:27:07;;;;;;;0.90;0.80;;;22.90;85.70;;;;;;4966289;28;20472;-62
2023/08/30 12:29:33;;;;;;;2.63;0.80;;;23.00;84.90;;;;;;4974019;28;20414;-62
2023/08/30 12:31:58;;;;;;;0.83;0.80;;;23.10;83.40;;;;;;4975631;28;20209;-62
2023/08/30 12:34:24;;;;;;;0.90;0.80;;;23.20;82.60;;;;;;4977560;28;20182;-63
2023/08/30 12:36:50;;;;;;;0.90;0.90;;;23.40;84.00;;;;;;4979635;28;20182;-63
2023/08/30 12:39:16;;;;;;;1.70;0.80;;;23.50;83.50;;;;;;4973455;28;20189;-61
2023/08/30 12:41:42;;;;;;;0.90;0.80;;;23.60;81.20;;;;;;4971853;28;20242;-65
2023/08/30 12:44:08;;;;;;;1.13;0.90;;;23.60;81.40;;;;;;4971707;28;20468;-63
2023/08/30 12:46:34;;;;;;;0.97;0.93;;;23.70;82.90;;;;;;4972750;28;20425;-63
2023/08/30 12:48:59;;;;;;;2.50;1.03;;;23.60;81.20;;;;;;4973153;28;20685;-65
2023/08/30 12:51:25;;;;;;;1.67;0.90;;;23.50;81.00;;;;;;4971569;28;20198;-62
2023/08/30 12:53:50;;;;;;;1.70;1.30;;;23.50;82.50;;;;;;4971007;28;20183;-62
2023/08/30 12:56:16;;;;;;;1.00;0.90;;;23.50;81.70;;;;;;4972353;28;20183;-62
2023/08/30 12:58:41;;;;;;;1.10;1.00;;;23.50;83.80;;;;;;4972023;28;20298;-63
2023/08/30 13:01:07;;;;;;;1.10;1.00;;;23.60;83.00;;;;;;4972817;28;20198;-62
2023/08/30 13:03:32;;;;;;;1.37;1.27;;;23.70;83.30;;;;;;4972114;28;20198;-63
2023/08/30 13:05:58;;;;;;;2.40;1.80;;;23.80;82.10;;;;;;4971876;28;20607;-66
2023/08/30 13:08:24;;;;;;;1.30;0.80;;;23.60;79.90;;;;;;4972054;28;20170;-61
2023/08/30 13:10:49;;;;;;;3.53;1.03;;;23.40;80.80;;;;;;4971601;28;20212;-63
2023/08/30 13:13:15;;;;;;;2.40;1.33;;;23.50;83.10;;;;;;4970847;28;20181;-64
2023/08/30 13:15:41;;;;;;;1.13;1.03;;;23.60;81.70;;;;;;4980553;28;20228;-62
2023/08/30 13:18:06;;;;;;;3.73;1.20;;;23.70;83.10;;;;;;4972403;28;20197;-62
2023/08/30 13:20:32;;;;;;;1.00;0.90;;;23.90;84.10;;;;;;4968383;28;20202;-63
2023/08/30 13:22:57;;;;;;;0.97;0.83;;;24.10;84.90;;;;;;4970371;28;20186;-63
2023/08/30 13:25:23;;;;;;;0.93;0.83;;;24.20;81.80;;;;;;4971720;28;20198;-62
2023/08/30 13:27:48;;;;;;;1.00;0.90;;;24.30;82.60;;;;;;4973202;28;20670;-63
2023/08/30 13:30:14;;;;;;;1.00;0.90;;;24.30;80.50;;;;;;4970464;28;20205;-63
2023/08/30 13:32:39;;;;;;;1.90;1.50;;;24.20;81.40;;;;;;4971949;28;20170;-63
2023/08/30 13:35:05;;;;;;;1.13;1.10;;;24.10;82.80;;;;;;4970445;28;20270;-63
2023/08/30 13:37:31;;;;;;;1.03;1.03;;;24.10;83.20;;;;;;4970352;28;20273;-63
2023/08/30 13:39:56;;;;;;;1.57;1.27;;;24.20;83.20;;;;;;4971225;28;20421;-63
2023/08/30 13:42:22;;;;;;;1.10;1.00;;;24.40;82.40;;;;;;4971175;28;20563;-63
2023/08/30 13:44:50;;;;;;;1.70;1.17;;;24.40;81.10;;;;;;4971277;28;20797;-64
2023/08/30 13:47:16;;;;;;;1.33;1.07;;;24.50;82.20;;;;;;4970547;28;20711;-61
2023/08/30 13:49:42;;;;;;;0.90;0.80;;;24.50;79.00;;;;;;4978848;28;20424;-63
2023/08/30 13:52:07;;;;;;;2.07;0.93;;;24.40;77.90;;;;;;4971300;28;20791;-63
2023/08/30 13:54:33;;;;;;;0.93;0.87;;;24.50;78.40;;;;;;4981224;28;20209;-62
2023/08/30 13:56:58;;;;;;;1.43;1.33;;;24.50;77.70;;;;;;4978715;28;20661;-61
2023/08/30 13:59:24;;;;;;;1.10;1.00;;;24.60;78.80;;;;;;4970035;28;20786;-62
2023/08/30 14:01:50;;;;;;;0.90;0.80;;;24.60;77.50;;;;;;4971111;28;20334;-65
2023/08/30 14:04:15;;;;;;;1.03;0.93;;;24.30;75.90;;;;;;4968346;28;20458;-63
2023/08/30 14:06:41;;;;;;;0.80;0.70;;;24.10;78.60;;;;;;4970459;28;20189;-64
2023/08/30 14:09:08;;;;;;;1.43;1.10;;;24.10;78.40;;;;;;4971830;28;20190;-63
2023/08/30 14:11:37;;;;;;;1.10;1.00;;;24.20;77.30;;;;;;4971162;28;20240;-62
2023/08/30 14:14:03;;;;;;;1.17;1.07;;;24.30;76.90;;;;;;4967560;28;20426;-63
2023/08/30 14:16:29;;;;;;;1.43;1.00;;;24.30;76.50;;;;;;4970426;28;20473;-64
2023/08/30 14:18:54;;;;;;;1.87;0.90;;;24.20;75.80;;;;;;4970328;28;20189;-63
2023/08/30 14:21:20;;;;;;;0.90;0.83;;;24.10;76.20;;;;;;4970766;28;20714;-63
2023/08/30 14:23:46;;;;;;;1.00;0.70;;;24.00;75.30;;;;;;4970526;28;20178;-64
2023/08/30 14:26:12;;;;;;;1.30;1.20;;;23.90;76.70;;;;;;4979518;28;20206;-62
2023/08/30 14:28:41;;;;;;;0.93;0.83;;;23.80;76.60;;;;;;4978372;28;20603;-64
2023/08/30 14:31:08;;;;;;;1.73;1.10;;;23.70;77.20;;;;;;4973347;28;20449;-63
2023/08/30 14:33:34;;;;;;;0.90;0.80;;;23.60;78.00;;;;;;4970175;28;20426;-62
2023/08/30 14:36:01;;;;;;;0.90;0.80;;;23.70;78.90;;;;;;4970134;28;20423;-63
2023/08/30 14:38:26;;;;;;;1.53;1.40;;;23.80;79.60;;;;;;4975879;28;20286;-63
2023/08/30 14:41:00;;;;;;;2.20;1.17;;;24.00;79.50;;;;;;4970048;28;21016;-63
2023/08/30 14:43:25;;;;;;;0.80;0.80;;;24.20;79.90;;;;;;4970906;28;20209;-61
2023/08/30 14:45:51;;;;;;;0.90;0.80;;;24.40;77.60;;;;;;4970722;28;20473;-63
2023/08/30 14:48:16;;;;;;;0.90;0.80;;;24.50;77.70;;;;;;4977589;28;20221;-63
2023/08/30 14:50:42;;;;;;;1.00;0.90;;;24.60;76.90;;;;;;4971517;28;20329;-62
2023/08/30 14:53:08;;;;;;;1.00;0.90;;;24.60;77.40;;;;;;4970266;28;20190;-63
2023/08/30 14:55:33;;;;;;;1.83;1.47;;;24.60;76.80;;;;;;4970751;28;20561;-64
2023/08/30 14:57:59;;;;;;;2.17;1.03;;;24.40;76.50;;;;;;4969560;28;20193;-63
2023/08/30 15:00:25;;;;;;;1.07;1.03;;;24.20;76.90;;;;;;4978004;28;20254;-63
2023/08/30 15:02:51;;;;;;;1.00;0.90;;;24.00;78.20;;;;;;4968408;28;20185;-63
2023/08/30 15:05:17;;;;;;;2.43;2.00;;;23.80;80.00;;;;;;4968466;28;20477;-63
2023/08/30 15:07:43;;;;;;;1.40;1.30;;;23.70;80.10;;;;;;4976019;28;20436;-63
2023/08/30 15:10:10;;;;;;;0.80;0.80;;;23.60;80.40;;;;;;4976459;28;20978;-63
2023/08/30 15:12:36;;;;;;;1.00;1.00;;;23.50;80.00;;;;;;4969682;28;20261;-63
2023/08/30 15:15:02;;;;;;;1.90;1.03;;;23.60;79.30;;;;;;4966797;28;20528;-63
2023/08/30 15:17:28;;;;;;;1.23;1.13;;;23.60;79.40;;;;;;4961703;28;20513;-63
2023/08/30 15:19:54;;;;;;;1.33;1.00;;;23.60;79.20;;;;;;4966049;28;20433;-63
2023/08/30 15:22:19;;;;;;;1.10;1.00;;;23.60;79.60;;;;;;4979245;28;20210;-64
2023/08/30 15:24:45;;;;;;;1.47;1.00;;;23.70;79.40;;;;;;4964568;28;20485;-62
2023/08/30 15:27:11;;;;;;;1.57;1.00;;;23.70;79.70;;;;;;4965750;28;20568;-62
2023/08/30 15:29:36;;;;;;;1.67;1.10;;;23.80;80.30;;;;;;4958261;28;20195;-64
2023/08/30 15:32:02;;;;;;;1.50;1.40;;;23.70;81.00;;;;;;4965748;28;20296;-64
2023/08/30 15:34:27;;;;;;;1.83;1.27;;;23.60;81.20;;;;;;4979259;28;20190;-63
2023/08/30 15:36:53;;;;;;;1.13;1.10;;;23.40;81.00;;;;;;4969024;28;20650;-64
2023/08/30 15:39:18;;;;;;;0.80;0.70;;;23.30;81.00;;;;;;4969357;28;20662;-63
2023/08/30 15:41:45;;;;;;;1.03;0.93;;;23.10;80.30;;;;;;4975716;28;20251;-64
2023/08/30 15:44:11;;;;;;;0.90;0.80;;;22.90;80.10;;;;;;4976107;28;20781;-64
2023/08/30 15:46:36;;;;;;;0.90;0.80;;;22.80;80.70;;;;;;4967854;28;20438;-63
2023/08/30 15:49:02;;;;;;;1.00;0.90;;;22.70;81.20;;;;;;4966938;28;20647;-63
2023/08/30 15:51:28;;;;;;;1.00;0.90;;;22.60;82.00;;;;;;4966941;28;20206;-63
2023/08/30 15:53:54;;;;;;;0.93;0.83;;;22.50;82.80;;;;;;4967409;28;20516;-66
2023/08/30 15:56:20;;;;;;;1.03;1.00;;;22.40;81.70;;;;;;4969644;28;20190;-64
2023/08/30 15:58:46;;;;;;;1.47;1.20;;;22.40;81.40;;;;;;4970727;28;20473;-64
2023/08/30 16:01:14;;;;;;;1.73;1.27;;;22.30;81.50;;;;;;4970874;28;20460;-63
2023/08/30 16:03:40;;;;;;;1.10;1.07;;;22.20;80.90;;;;;;4972804;28;20441;-64
2023/08/30 16:06:05;;;;;;;1.10;0.90;;;22.20;82.30;;;;;;4971556;28;20473;-64
2023/08/30 16:08:31;;;;;;;1.20;1.00;;;22.10;82.00;;;;;;4971603;28;20187;-64
2023/08/30 16:10:57;;;;;;;1.03;0.93;;;22.10;81.80;;;;;;4972783;28;20620;-64
2023/08/30 16:13:22;;;;;;;1.00;0.90;;;22.10;81.70;;;;;;4970061;28;20680;-63
2023/08/30 16:15:48;;;;;;;1.90;1.07;;;22.10;81.00;;;;;;4971658;28;20242;-64
2023/08/30 16:18:15;;;;;;;1.00;0.90;;;22.10;81.60;;;;;;5003892;23;20371;-62
2023/08/30 16:20:41;;;;;;;4.73;1.37;;;22.10;83.10;;;;;;4985297;28;20486;-64
2023/08/30 16:23:06;;;;;;;13.77;1.13;;;22.20;83.20;;;;;;4970222;28;20460;-64
2023/08/30 16:25:32;;;;;;;0.90;0.80;;;22.20;82.90;;;;;;4971250;28;20300;-65
2023/08/30 16:27:57;;;;;;;1.30;1.20;;;22.30;84.10;;;;;;4970913;28;20233;-65
2023/08/30 16:30:25;;;;;;;0.90;0.90;;;22.40;84.90;;;;;;4972350;28;20702;-64
2023/08/30 16:32:51;;;;;;;1.23;1.13;;;22.40;85.10;;;;;;4970443;28;20722;-64
2023/08/30 16:35:16;;;;;;;2.17;0.90;;;22.50;84.00;;;;;;4971792;28;20460;-65
2023/08/30 16:37:42;;;;;;;1.20;1.03;;;22.40;85.00;;;;;;4976359;28;20188;-64
2023/08/30 16:40:08;;;;;;;2.67;1.63;;;22.40;87.30;;;;;;4973623;28;20245;-64
2023/08/30 16:42:33;;;;;;;3.90;2.10;;;22.30;87.60;;;;;;4978123;28;20219;-64